44.2°F
Current conditions from King Hill
Updated every 5 minutes
 
  Wednesday April 23, 2014

Station Historical Data
Daily Summary for June 23, 2011 Units:  Metric    English   Both
« Previous Day
Next Day »
Daily Weekly Monthly Yearly Custom
  High: Low: Average:
Temperature: 21.8 °C 15 °C 18.1 °C
Dew Point: 18.4 °C 13.9 °C 15.8 °C
Humidity: 96% 76% 87%
Wind Speed: 11.3km/h 0km/h 4.3km/h
Wind Gust: 29km/h - -
Wind- - South
Pressure: 1009.7 hPa 1005.6 hPa -
Precipitation: 3.6 mm    
Historical Graphs
 
 
Tabular Data for June 23, 2011
Time Temperature Dew Point Pressure Wind Wind Speed Wind Gust Humidity Daily Rainfall
00:00 15 °C 13.9 °C 1009.7 hPa Calm     93% 5.6 mm
00:05 15 °C 13.9 °C 1009.7 hPa Calm     93% 0 mm
00:10 15 °C 14.1 °C 1009.4 hPa Calm     94% 0 mm
00:15 15 °C 14.1 °C 1009.4 hPa Calm   3.2 km/h 94% 0 mm
00:20 15 °C 14.1 °C 1009.4 hPa SSE 1.6 km/h 4.8 km/h 94% 0 mm
00:25 15 °C 14.1 °C 1009.4 hPa Calm   4.8 km/h 94% 0 mm
00:30 15.1 °C 14.2 °C 1009.4 hPa Calm   3.2 km/h 94% 0.3 mm
00:35 15.2 °C 14.4 °C 1009 hPa Calm   4.8 km/h 95% 0.3 mm
00:40 15.3 °C 14.5 °C 1009 hPa SSE 1.6 km/h 4.8 km/h 95% 0.3 mm
00:45 15.3 °C 14.6 °C 1009 hPa Calm   4.8 km/h 95% 0.3 mm
00:50 15.3 °C 14.6 °C 1009 hPa Calm     95% 0.3 mm
00:55 15.3 °C 14.6 °C 1009 hPa Calm   1.6 km/h 95% 0.3 mm
01:00 15.3 °C 14.6 °C 1008.7 hPa Calm   1.6 km/h 95% 0.3 mm
01:05 15.3 °C 14.6 °C 1008.7 hPa Calm   1.6 km/h 95% 0.3 mm
01:15 15.3 °C 14.5 °C 1008.7 hPa Calm   1.6 km/h 95% 0.3 mm
01:20 15.3 °C 14.5 °C 1008.7 hPa Calm   1.6 km/h 95% 0.3 mm
01:25 15.3 °C 14.6 °C 1008.7 hPa Calm   1.6 km/h 95% 0.3 mm
01:30 15.4 °C 14.6 °C 1008.7 hPa Calm   1.6 km/h 95% 0.3 mm
01:35 15.4 °C 14.7 °C 1008.7 hPa Calm   1.6 km/h 95% 0.3 mm
01:40 15.4 °C 14.6 °C 1008.7 hPa Calm   1.6 km/h 95% 0.3 mm
01:45 15.4 °C 14.6 °C 1008.7 hPa Calm     95% 0.3 mm
01:50 15.4 °C 14.7 °C 1008.4 hPa Calm   1.6 km/h 95% 0.3 mm
01:55 15.6 °C 14.8 °C 1008.7 hPa Calm   1.6 km/h 95% 0.3 mm
02:00 15.6 °C 14.8 °C 1008.7 hPa Calm   1.6 km/h 95% 0.3 mm
02:05 15.5 °C 14.7 °C 1008.7 hPa Calm   1.6 km/h 95% 0.3 mm
02:10 15.4 °C 14.7 °C 1009 hPa Calm   1.6 km/h 95% 0.3 mm
02:15 15.5 °C 14.7 °C 1009 hPa Calm   1.6 km/h 95% 0.3 mm
02:20 15.5 °C 14.9 °C 1009 hPa Calm     96% 0.3 mm
02:25 15.6 °C 14.9 °C 1009 hPa Calm     96% 0.3 mm
02:30 15.6 °C 14.9 °C 1008.7 hPa SSW 1.6 km/h 8 km/h 96% 0.3 mm
02:35 15.6 °C 14.9 °C 1008.7 hPa Calm   8 km/h 96% 0.3 mm
02:40 15.6 °C 15 °C 1008.7 hPa Calm   4.8 km/h 96% 0.3 mm
02:45 15.7 °C 15.1 °C 1008.7 hPa Calm   3.2 km/h 96% 0.3 mm
02:50 15.7 °C 15.1 °C 1008.7 hPa Calm   1.6 km/h 96% 0.3 mm
02:55 15.7 °C 15.1 °C 1008.7 hPa Calm   3.2 km/h 96% 0.3 mm
03:00 15.7 °C 15.1 °C 1008.7 hPa Calm   6.4 km/h 96% 0.3 mm
03:05 15.8 °C 15.2 °C 1008.4 hPa SE 3.2 km/h 6.4 km/h 96% 0.3 mm
03:10 15.8 °C 15.2 °C 1008.4 hPa Calm   6.4 km/h 96% 0.3 mm
03:15 15.8 °C 15.2 °C 1008.7 hPa Calm   6.4 km/h 96% 0.3 mm
03:20 15.8 °C 15.2 °C 1008.7 hPa Calm   1.6 km/h 96% 0.3 mm
03:25 15.7 °C 14.9 °C 1008.4 hPa Calm   1.6 km/h 95% 0.3 mm
03:30 15.7 °C 14.9 °C 1008.4 hPa Calm   1.6 km/h 95% 0.3 mm
03:35 15.6 °C 14.8 °C 1008.4 hPa Calm   3.2 km/h 95% 0.3 mm
03:45 15.5 °C 14.9 °C 1008.4 hPa Calm   1.6 km/h 96% 0.3 mm
03:50 15.4 °C 14.8 °C 1008.4 hPa Calm   1.6 km/h 96% 0.3 mm
03:55 15.4 °C 14.8 °C 1008.4 hPa Calm     96% 0.3 mm
04:00 15.3 °C 14.6 °C 1008.4 hPa Calm     95% 0.3 mm
04:05 15.4 °C 14.8 °C 1008.4 hPa Calm   3.2 km/h 96% 0.3 mm
04:10 15.4 °C 14.8 °C 1008 hPa Calm   3.2 km/h 96% 0.3 mm
04:15 15.5 °C 14.9 °C 1008 hPa Calm   3.2 km/h 96% 0.3 mm
04:20 15.6 °C 15 °C 1008 hPa Calm   4.8 km/h 96% 0.3 mm
04:25 15.7 °C 15.1 °C 1008 hPa Calm   4.8 km/h 96% 0.3 mm
04:30 15.8 °C 15.2 °C 1008 hPa Calm   4.8 km/h 96% 0.3 mm
04:35 15.8 °C 15.2 °C 1008 hPa Calm   4.8 km/h 96% 0.3 mm
04:40 15.8 °C 15.2 °C 1007.7 hPa Calm   3.2 km/h 96% 0.3 mm
04:45 15.9 °C 15.3 °C 1007.7 hPa SE 1.6 km/h 6.4 km/h 96% 0.3 mm
04:50 16.1 °C 15.5 °C 1007.7 hPa Calm   6.4 km/h 96% 0.3 mm
04:55 16.2 °C 15.6 °C 1007.7 hPa SE 1.6 km/h 6.4 km/h 96% 0.3 mm
05:00 16.2 °C 15.6 °C 1007.7 hPa Calm   6.4 km/h 96% 0.3 mm
05:05 16.3 °C 15.7 °C 1007.7 hPa ESE 1.6 km/h 4.8 km/h 96% 0.3 mm
05:10 16.3 °C 15.7 °C 1007.7 hPa Calm   4.8 km/h 96% 0.3 mm
05:15 16.3 °C 15.7 °C 1007.7 hPa Calm   4.8 km/h 96% 0.3 mm
05:20 16.3 °C 15.7 °C 1007.7 hPa Calm   4.8 km/h 96% 0.3 mm
05:25 16.3 °C 15.7 °C 1007.7 hPa SE 3.2 km/h 6.4 km/h 96% 0.3 mm
05:30 16.4 °C 15.7 °C 1008 hPa Calm   8 km/h 96% 0.3 mm
05:35 16.4 °C 15.7 °C 1007.7 hPa South 3.2 km/h 8 km/h 95% 0.3 mm
05:40 16.4 °C 15.8 °C 1007.7 hPa Calm   8 km/h 96% 0.3 mm
05:45 16.5 °C 15.7 °C 1007.7 hPa SSW 3.2 km/h 8 km/h 95% 0.3 mm
05:50 16.6 °C 15.8 °C 1007.7 hPa Calm   8 km/h 95% 0.3 mm
06:00 16.6 °C 15.8 °C 1007.7 hPa Calm   8 km/h 95% 0.3 mm
06:05 16.7 °C 15.9 °C 1007.7 hPa Calm   4.8 km/h 95% 0.3 mm
06:10 16.7 °C 15.9 °C 1007.7 hPa Calm   6.4 km/h 95% 0.3 mm
06:20 16.8 °C 16.1 °C 1007.7 hPa Calm   8 km/h 95% 0.3 mm
06:25 16.9 °C 16.1 °C 1007.7 hPa Calm   8 km/h 95% 0.3 mm
06:30 16.9 °C 15.9 °C 1007.7 hPa South 3.2 km/h 12.9 km/h 94% 0.3 mm
06:35 17 °C 16 °C 1007.7 hPa Calm   12.9 km/h 94% 0.3 mm
06:40 17.1 °C 16.1 °C 1007.7 hPa Calm   8 km/h 94% 0.3 mm
06:45 17.2 °C 16 °C 1007.7 hPa SSE 3.2 km/h 9.7 km/h 93% 0.3 mm
06:55 17.3 °C 16.2 °C 1007.7 hPa Calm   11.3 km/h 93% 0.3 mm
07:00 17.4 °C 16.3 °C 1007.7 hPa Calm   4.8 km/h 93% 0.5 mm
07:05 17.6 °C 16.4 °C 1007.7 hPa SSE 1.6 km/h 4.8 km/h 93% 0.5 mm
07:10 17.7 °C 16.6 °C 1007.7 hPa Calm   4.8 km/h 93% 0.5 mm
07:15 17.8 °C 16.7 °C 1007.7 hPa South 3.2 km/h 11.3 km/h 93% 0.5 mm
07:20 17.9 °C 16.6 °C 1007.7 hPa Calm   11.3 km/h 92% 0.5 mm
07:25 18.1 °C 16.6 °C 1007.3 hPa South 3.2 km/h 9.7 km/h 91% 0.5 mm
07:30 18.2 °C 16.7 °C 1007.3 hPa South 1.6 km/h 16.1 km/h 91% 0.5 mm
07:35 18.3 °C 16.4 °C 1007.3 hPa SSE 3.2 km/h 16.1 km/h 89% 0.5 mm
07:40 18.4 °C 16.6 °C 1007.7 hPa SE 3.2 km/h 16.1 km/h 89% 0.5 mm
07:45 18.6 °C 16.7 °C 1007.3 hPa Calm   9.7 km/h 89% 0.5 mm
07:50 18.7 °C 16.9 °C 1007.3 hPa Calm   3.2 km/h 89% 0.5 mm
07:55 18.9 °C 17.1 °C 1007.3 hPa Calm   9.7 km/h 89% 0.5 mm
08:00 19.1 °C 17 °C 1007.7 hPa SSE 3.2 km/h 9.7 km/h 88% 0.5 mm
08:05 19.2 °C 16.9 °C 1007.3 hPa ESE 1.6 km/h 8 km/h 87% 0.5 mm
08:10 19.3 °C 16.9 °C 1007.3 hPa Calm   8 km/h 86% 0.5 mm
08:15 19.4 °C 17.1 °C 1007.3 hPa Calm   6.4 km/h 86% 0.5 mm
08:20 19.5 °C 16.9 °C 1007 hPa SSW 1.6 km/h 6.4 km/h 85% 0.5 mm
08:25 19.6 °C 16.8 °C 1007 hPa Calm   6.4 km/h 84% 0.5 mm
08:35 19.5 °C 16.9 °C 1007 hPa SE 3.2 km/h 14.5 km/h 85% 0.5 mm
08:40 19.3 °C 16.5 °C 1007.3 hPa SE 1.6 km/h 14.5 km/h 84% 0.5 mm
08:45 19.1 °C 16.5 °C 1007.3 hPa SSW 4.8 km/h 14.5 km/h 85% 0.5 mm
08:50 18.9 °C 16.5 °C 1007.3 hPa SW 4.8 km/h 14.5 km/h 86% 0.5 mm
09:00 18.7 °C 16.7 °C 1007.3 hPa SSW 3.2 km/h 9.7 km/h 88% 0.8 mm
09:05 18.4 °C 16.4 °C 1007.3 hPa SE 3.2 km/h 11.3 km/h 88% 1.5 mm
09:10 18.2 °C 16.3 °C 1007.3 hPa Calm   11.3 km/h 89% 2 mm
09:15 17.9 °C 16.3 °C 1007.3 hPa South 3.2 km/h 12.9 km/h 90% 2.3 mm
09:20 17.9 °C 16.4 °C 1007.7 hPa SW 1.6 km/h 12.9 km/h 91% 2.3 mm
09:30 17.8 °C 16.5 °C 1007.3 hPa Calm   14.5 km/h 92% 2.5 mm
09:35 17.8 °C 16.5 °C 1007.3 hPa SE 3.2 km/h 12.9 km/h 92% 2.5 mm
09:40 17.8 °C 16.4 °C 1007.3 hPa South 3.2 km/h 12.9 km/h 92% 2.8 mm
09:45 17.7 °C 16.3 °C 1007.3 hPa SSE 6.4 km/h 17.7 km/h 92% 2.8 mm
09:50 17.7 °C 16.3 °C 1007.3 hPa South 1.6 km/h 17.7 km/h 92% 3 mm
09:55 17.7 °C 16.3 °C 1007 hPa SSE 1.6 km/h 14.5 km/h 92% 3 mm
10:00 17.7 °C 16.3 °C 1007 hPa SSW 1.6 km/h 14.5 km/h 92% 3 mm
10:05 17.7 °C 16.6 °C 1007 hPa SSE 1.6 km/h 9.7 km/h 93% 3.3 mm
10:10 17.8 °C 16.6 °C 1007 hPa SSW 3.2 km/h 11.3 km/h 93% 3.6 mm
10:15 17.8 °C 16.7 °C 1007 hPa Calm   11.3 km/h 93% 3.6 mm
10:20 18 °C 16.8 °C 1007 hPa Calm   8 km/h 93% 3.6 mm
10:25 18.3 °C 17.1 °C 1007 hPa Calm   8 km/h 93% 3.6 mm
10:30 18.3 °C 17.2 °C 1007 hPa SSW 1.6 km/h 12.9 km/h 93% 3.6 mm
10:35 18.4 °C 17.2 °C 1007 hPa South 4.8 km/h 12.9 km/h 93% 3.6 mm
10:40 18.6 °C 17.4 °C 1007 hPa Calm   9.7 km/h 93% 3.6 mm
10:45 18.8 °C 17.6 °C 1007 hPa Calm   8 km/h 93% 3.6 mm
10:50 18.9 °C 17.7 °C 1007 hPa SSE 1.6 km/h 8 km/h 93% 3.6 mm
10:55 19.2 °C 18 °C 1007 hPa Calm   8 km/h 93% 3.6 mm
11:00 19.3 °C 18 °C 1007 hPa Calm   8 km/h 92% 3.6 mm
11:05 19.3 °C 17.4 °C 1007 hPa SSW 1.6 km/h 16.1 km/h 89% 3.6 mm
11:10 19.3 °C 17.4 °C 1007 hPa South 3.2 km/h 16.1 km/h 89% 3.6 mm
11:15 19.2 °C 17.4 °C 1007 hPa SSW 1.6 km/h 11.3 km/h 89% 3.6 mm
11:20 19.3 °C 17.4 °C 1007 hPa SSW 1.6 km/h 9.7 km/h 89% 3.6 mm
11:25 19.3 °C 17.4 °C 1007 hPa SSW 4.8 km/h 19.3 km/h 89% 3.6 mm
11:30 19.4 °C 17.3 °C 1007 hPa SSW 6.4 km/h 19.3 km/h 88% 3.6 mm
11:35 19.3 °C 17.1 °C 1007 hPa SSW 1.6 km/h 17.7 km/h 87% 3.6 mm
11:40 19.2 °C 16.9 °C 1007 hPa SW 4.8 km/h 17.7 km/h 87% 3.6 mm
11:45 19 °C 16.9 °C 1007 hPa SW 1.6 km/h 17.7 km/h 88% 3.6 mm
11:50 18.9 °C 17.1 °C 1007.3 hPa SSW 1.6 km/h 16.1 km/h 89% 3.6 mm
11:55 18.9 °C 17.1 °C 1007 hPa South 3.2 km/h 14.5 km/h 89% 3.6 mm
12:05 19 °C 17.2 °C 1007 hPa SSE 4.8 km/h 17.7 km/h 89% 3.6 mm
12:10 19.1 °C 17 °C 1006.7 hPa SSE 1.6 km/h 19.3 km/h 88% 3.6 mm
12:15 19.1 °C 16.9 °C 1006.7 hPa South 6.4 km/h 19.3 km/h 87% 3.6 mm
12:20 19.1 °C 16.8 °C 1006.7 hPa SSW 3.2 km/h 19.3 km/h 87% 3.6 mm
12:25 19 °C 16.8 °C 1006.7 hPa SSW 4.8 km/h 19.3 km/h 87% 3.6 mm
12:30 19.1 °C 17 °C 1006.7 hPa SSW 3.2 km/h 16.1 km/h 88% 3.6 mm
12:35 19.2 °C 17.4 °C 1006.7 hPa South 4.8 km/h 16.1 km/h 89% 3.6 mm
12:40 19.4 °C 17.6 °C 1006.7 hPa Calm   11.3 km/h 89% 3.6 mm
12:45 19.7 °C 17.7 °C 1006.7 hPa SSE 1.6 km/h 12.9 km/h 88% 3.6 mm
12:50 19.9 °C 17.5 °C 1006.7 hPa South 8 km/h 17.7 km/h 86% 3.6 mm
12:55 20.1 °C 17.7 °C 1006.7 hPa South 4.8 km/h 20.9 km/h 86% 3.6 mm
13:00 20.3 °C 17.7 °C 1006.7 hPa SSE 6.4 km/h 20.9 km/h 85% 3.6 mm
13:05 20.4 °C 17.7 °C 1006.7 hPa South 6.4 km/h 19.3 km/h 84% 3.6 mm
13:10 20.6 °C 17.8 °C 1006.3 hPa SW 6.4 km/h 19.3 km/h 84% 3.6 mm
13:15 21 °C 17.8 °C 1006.7 hPa SSW 8 km/h 29 km/h 82% 3.6 mm
13:20 21.4 °C 18.4 °C 1006.7 hPa South 4.8 km/h 29 km/h 83% 3.6 mm
13:25 21.8 °C 18.1 °C 1006.7 hPa SSW 4.8 km/h 16.1 km/h 79% 3.6 mm
13:30 21.8 °C 17.8 °C 1006.7 hPa South 4.8 km/h 17.7 km/h 78% 3.6 mm
13:35 21.6 °C 17.6 °C 1006.7 hPa South 6.4 km/h 17.7 km/h 78% 3.6 mm
13:40 21.2 °C 17.4 °C 1006.7 hPa South 3.2 km/h 19.3 km/h 79% 3.6 mm
13:45 20.9 °C 17.1 °C 1006.7 hPa SSW 6.4 km/h 19.3 km/h 79% 3.6 mm
13:50 20.6 °C 17 °C 1006.7 hPa SSW 8 km/h 20.9 km/h 80% 3.6 mm
13:55 20.5 °C 17.1 °C 1006.7 hPa South 6.4 km/h 20.9 km/h 81% 3.6 mm
14:00 20.6 °C 17.2 °C 1006.7 hPa South 3.2 km/h 20.9 km/h 81% 3.6 mm
14:05 20.8 °C 17.4 °C 1006.7 hPa South 3.2 km/h 24.1 km/h 81% 3.6 mm
14:10 20.7 °C 16.9 °C 1006.7 hPa SSW 3.2 km/h 24.1 km/h 79% 3.6 mm
14:15 20.6 °C 16.8 °C 1007 hPa South 6.4 km/h 16.1 km/h 79% 3.6 mm
14:20 20.4 °C 16.7 °C 1006.7 hPa South 9.7 km/h 24.1 km/h 79% 3.6 mm
14:25 20.4 °C 16.9 °C 1006.7 hPa SSW 6.4 km/h 24.1 km/h 80% 3.6 mm
14:30 20.7 °C 16.9 °C 1006.7 hPa SSW 4.8 km/h 20.9 km/h 79% 3.6 mm
14:35 20.7 °C 16.9 °C 1006.7 hPa SSW 8 km/h 22.5 km/h 79% 3.6 mm
14:40 20.7 °C 17.2 °C 1006.7 hPa SSE 1.6 km/h 22.5 km/h 80% 3.6 mm
14:50 20.4 °C 16.7 °C 1006.7 hPa SSW 3.2 km/h 24.1 km/h 79% 3.6 mm
14:55 20.2 °C 16.4 °C 1006.7 hPa South 4.8 km/h 24.1 km/h 79% 3.6 mm
15:00 19.9 °C 16.4 °C 1006.7 hPa SSE 4.8 km/h 14.5 km/h 80% 3.6 mm
15:05 19.8 °C 16.2 °C 1006.7 hPa South 3.2 km/h 19.3 km/h 80% 3.6 mm
15:10 19.7 °C 16.2 °C 1006.7 hPa SW 4.8 km/h 19.3 km/h 80% 3.6 mm
15:15 19.8 °C 16.2 °C 1006.7 hPa South 6.4 km/h 20.9 km/h 80% 3.6 mm
15:20 20.1 °C 16.3 °C 1006.3 hPa South 8 km/h 20.9 km/h 79% 3.6 mm
15:25 20.3 °C 16.5 °C 1006.3 hPa SSE 4.8 km/h 24.1 km/h 79% 3.6 mm
15:30 20.3 °C 16.4 °C 1006.3 hPa SSW 6.4 km/h 24.1 km/h 78% 3.6 mm
15:35 20.4 °C 16.4 °C 1006.3 hPa SSW 4.8 km/h 22.5 km/h 78% 3.6 mm
15:40 20.3 °C 16.3 °C 1006.3 hPa South 8 km/h 25.7 km/h 78% 3.6 mm
15:45 20.2 °C 16.3 °C 1006.3 hPa South 9.7 km/h 25.7 km/h 78% 3.6 mm
15:50 20.3 °C 16.8 °C 1006.3 hPa SSW 4.8 km/h 22.5 km/h 80% 3.6 mm
15:55 20.2 °C 16.2 °C 1006.3 hPa SSW 9.7 km/h 24.1 km/h 78% 3.6 mm
16:00 20.1 °C 15.9 °C 1006.3 hPa SSE 11.3 km/h 24.1 km/h 77% 3.6 mm
16:05 20 °C 16.3 °C 1006.3 hPa SSW 4.8 km/h 24.1 km/h 79% 3.6 mm
16:10 20 °C 16.1 °C 1006.3 hPa SSW 9.7 km/h 22.5 km/h 78% 3.6 mm
16:15 19.9 °C 16.2 °C 1006.3 hPa SSE 8 km/h 25.7 km/h 79% 3.6 mm
16:20 19.9 °C 16 °C 1006.3 hPa SSW 6.4 km/h 25.7 km/h 78% 3.6 mm
16:25 19.9 °C 16 °C 1006.3 hPa South 6.4 km/h 22.5 km/h 78% 3.6 mm
16:30 20.1 °C 16.1 °C 1006.3 hPa SSE 8 km/h 22.5 km/h 78% 3.6 mm
16:35 20.2 °C 16.3 °C 1006.3 hPa South 6.4 km/h 22.5 km/h 78% 3.6 mm
16:40 20.4 °C 16.4 °C 1006.3 hPa South 6.4 km/h 19.3 km/h 78% 3.6 mm
16:45 20.5 °C 16.3 °C 1006.3 hPa South 3.2 km/h 19.3 km/h 77% 3.6 mm
16:50 20.4 °C 16.1 °C 1006.3 hPa South 8 km/h 19.3 km/h 76% 3.6 mm
16:55 20.3 °C 16.4 °C 1006 hPa SSE 6.4 km/h 24.1 km/h 78% 3.6 mm
17:00 20.4 °C 16.2 °C 1006 hPa South 8 km/h 24.1 km/h 77% 3.6 mm
17:05 20.4 °C 16.4 °C 1006 hPa SSE 3.2 km/h 22.5 km/h 78% 3.6 mm
17:10 20.4 °C 16.5 °C 1006 hPa South 6.4 km/h 24.1 km/h 78% 3.6 mm
17:15 20.4 °C 16.3 °C 1006 hPa SSE 6.4 km/h 24.1 km/h 77% 3.6 mm
17:20 20.3 °C 16.4 °C 1006 hPa SSE 3.2 km/h 22.5 km/h 78% 3.6 mm
17:25 20.2 °C 16.3 °C 1006 hPa SSW 1.6 km/h 17.7 km/h 78% 3.6 mm
17:30 20.2 °C 16 °C 1005.6 hPa SE 9.7 km/h 22.5 km/h 77% 3.6 mm
17:35 20.1 °C 15.9 °C 1006 hPa SE 11.3 km/h 24.1 km/h 77% 3.6 mm
17:40 19.9 °C 15.8 °C 1006 hPa SSW 8 km/h 25.7 km/h 77% 3.6 mm
17:45 20.1 °C 15.9 °C 1005.6 hPa South 6.4 km/h 25.7 km/h 77% 3.6 mm
17:50 20.2 °C 16.1 °C 1006 hPa South 3.2 km/h 20.9 km/h 77% 3.6 mm
17:55 20.1 °C 16.2 °C 1006 hPa SSW 6.4 km/h 24.1 km/h 78% 3.6 mm
18:00 19.9 °C 15.8 °C 1006 hPa SSE 8 km/h 24.1 km/h 77% 3.6 mm
18:05 19.7 °C 15.8 °C 1006 hPa South 8 km/h 29 km/h 78% 3.6 mm
18:10 19.6 °C 15.8 °C 1006 hPa South 3.2 km/h 29 km/h 79% 3.6 mm
18:15 19.3 °C 15.8 °C 1006 hPa SSE 4.8 km/h 25.7 km/h 80% 3.6 mm
18:20 19.2 °C 15.7 °C 1006 hPa South 9.7 km/h 24.1 km/h 80% 3.6 mm
18:25 19.1 °C 15.6 °C 1006 hPa South 1.6 km/h 22.5 km/h 80% 3.6 mm
18:30 19 °C 15.5 °C 1006 hPa South 1.6 km/h 19.3 km/h 80% 3.6 mm
18:40 18.8 °C 15.5 °C 1005.6 hPa South 1.6 km/h 17.7 km/h 81% 3.6 mm
18:45 18.8 °C 15.4 °C 1005.6 hPa South 6.4 km/h 19.3 km/h 81% 3.6 mm
18:50 18.7 °C 15.4 °C 1006 hPa SSW 6.4 km/h 19.3 km/h 81% 3.6 mm
18:55 18.7 °C 15.4 °C 1006 hPa SE 3.2 km/h 20.9 km/h 81% 3.6 mm
19:00 18.7 °C 15.6 °C 1006 hPa South 1.6 km/h 20.9 km/h 82% 3.6 mm
19:05 18.7 °C 15.3 °C 1006 hPa South 4.8 km/h 16.1 km/h 81% 3.6 mm
19:10 18.6 °C 15.3 °C 1006.3 hPa South 1.6 km/h 16.1 km/h 81% 3.6 mm
19:15 18.6 °C 15.4 °C 1006.3 hPa SSW 1.6 km/h 16.1 km/h 82% 3.6 mm
19:20 18.4 °C 15.3 °C 1006.3 hPa SSE 3.2 km/h 16.1 km/h 82% 3.6 mm
19:25 18.3 °C 15.4 °C 1006.3 hPa Calm   16.1 km/h 83% 3.6 mm
19:30 18.3 °C 15.3 °C 1006.3 hPa SSE 3.2 km/h 11.3 km/h 83% 3.6 mm
19:40 18.2 °C 15.1 °C 1006.3 hPa SE 8 km/h 17.7 km/h 82% 3.6 mm
19:45 18.2 °C 15.1 °C 1006 hPa South 4.8 km/h 20.9 km/h 82% 3.6 mm
19:50 18.2 °C 15.1 °C 1006.3 hPa South 1.6 km/h 20.9 km/h 82% 3.6 mm
19:55 18.2 °C 15.1 °C 1006 hPa SSW 1.6 km/h 19.3 km/h 82% 3.6 mm
20:00 18.1 °C 15 °C 1006.3 hPa SSW 3.2 km/h 19.3 km/h 82% 3.6 mm
20:05 18.1 °C 15.1 °C 1006.3 hPa SE 1.6 km/h 16.1 km/h 83% 3.6 mm
20:10 18 °C 15.1 °C 1006 hPa South 4.8 km/h 16.1 km/h 83% 3.6 mm
20:15 17.9 °C 15 °C 1006 hPa SSE 6.4 km/h 16.1 km/h 83% 3.6 mm
20:20 17.9 °C 14.9 °C 1006 hPa South 4.8 km/h 16.1 km/h 83% 3.6 mm
20:25 17.8 °C 14.9 °C 1006 hPa South 8 km/h 24.1 km/h 83% 3.6 mm
20:30 17.8 °C 14.7 °C 1006 hPa SSE 1.6 km/h 24.1 km/h 82% 3.6 mm
20:35 17.8 °C 14.8 °C 1006 hPa South 9.7 km/h 24.1 km/h 83% 3.6 mm
20:40 17.7 °C 14.8 °C 1006 hPa SSE 3.2 km/h 24.1 km/h 83% 3.6 mm
20:45 17.7 °C 14.7 °C 1006 hPa SSE 9.7 km/h 17.7 km/h 83% 3.6 mm
20:50 17.7 °C 14.7 °C 1006 hPa South 4.8 km/h 17.7 km/h 83% 3.6 mm
20:55 17.6 °C 14.7 °C 1006 hPa SSE 6.4 km/h 22.5 km/h 83% 3.6 mm
21:00 17.6 °C 14.7 °C 1006 hPa South 3.2 km/h 22.5 km/h 83% 3.6 mm
21:05 17.6 °C 14.7 °C 1006 hPa South 3.2 km/h 17.7 km/h 83% 3.6 mm
21:10 17.6 °C 14.4 °C 1006 hPa South 8 km/h 29 km/h 82% 3.6 mm
21:15 17.6 °C 14.7 °C 1006 hPa South 6.4 km/h 29 km/h 83% 3.6 mm
21:20 17.6 °C 14.5 °C 1006.3 hPa SSW 8 km/h 19.3 km/h 82% 3.6 mm
21:25 17.6 °C 14.5 °C 1006.3 hPa SSE 1.6 km/h 19.3 km/h 82% 3.6 mm
21:30 17.6 °C 14.5 °C 1006.3 hPa SSE 3.2 km/h 17.7 km/h 82% 3.6 mm
21:35 17.6 °C 14.4 °C 1006.3 hPa Calm   17.7 km/h 82% 3.6 mm
21:40 17.5 °C 14.4 °C 1006.3 hPa Calm   17.7 km/h 82% 3.6 mm
21:45 17.5 °C 14.6 °C 1006.7 hPa SSE 4.8 km/h 25.7 km/h 83% 3.6 mm
21:50 17.5 °C 14.4 °C 1006.7 hPa SW 1.6 km/h 25.7 km/h 82% 3.6 mm
21:55 17.5 °C 14.6 °C 1006.7 hPa SSW 1.6 km/h 14.5 km/h 83% 3.6 mm
22:00 17.4 °C 14.3 °C 1006.7 hPa SSE 3.2 km/h 12.9 km/h 82% 3.6 mm
22:05 17.4 °C 14.6 °C 1006.3 hPa Calm   11.3 km/h 83% 3.6 mm
22:10 17.4 °C 14.5 °C 1006.7 hPa SSE 1.6 km/h 16.1 km/h 83% 3.6 mm
22:15 17.4 °C 14.3 °C 1006.3 hPa South 6.4 km/h 17.7 km/h 82% 3.6 mm
22:20 17.5 °C 14.4 °C 1006.3 hPa South 1.6 km/h 20.9 km/h 82% 3.6 mm
22:25 17.5 °C 14.2 °C 1006.3 hPa SSE 4.8 km/h 25.7 km/h 81% 3.6 mm
22:35 17.6 °C 14.3 °C 1006.3 hPa SSW 4.8 km/h 12.9 km/h 81% 3.6 mm
22:40 17.6 °C 14.3 °C 1006.3 hPa SSW 1.6 km/h 14.5 km/h 81% 3.6 mm
22:45 17.6 °C 14.3 °C 1006.3 hPa South 3.2 km/h 14.5 km/h 81% 3.6 mm
22:55 17.6 °C 14.3 °C 1006.3 hPa SE 3.2 km/h 14.5 km/h 81% 3.6 mm
23:00 17.6 °C 14.3 °C 1006.3 hPa SSE 1.6 km/h 12.9 km/h 81% 3.6 mm
23:05 17.6 °C 14.3 °C 1006.3 hPa SSW 3.2 km/h 12.9 km/h 81% 3.6 mm
23:10 17.5 °C 14.2 °C 1006.3 hPa SSE 1.6 km/h 14.5 km/h 81% 3.6 mm
23:15 17.5 °C 14.2 °C 1006.3 hPa South 1.6 km/h 19.3 km/h 81% 3.6 mm
23:20 17.6 °C 14.1 °C 1006 hPa South 4.8 km/h 20.9 km/h 80% 3.6 mm
23:25 17.6 °C 14.1 °C 1006 hPa SSE 6.4 km/h 20.9 km/h 80% 3.6 mm
23:30 17.6 °C 14.3 °C 1006 hPa SSW 1.6 km/h 20.9 km/h 81% 3.6 mm
23:35 17.5 °C 14.2 °C 1006 hPa SSW 3.2 km/h 16.1 km/h 81% 3.6 mm
23:40 17.4 °C 14.2 °C 1006 hPa SSE 1.6 km/h 12.9 km/h 81% 3.6 mm
23:45 17.4 °C 14.1 °C 1005.6 hPa Calm   14.5 km/h 81% 3.6 mm
23:50 17.3 °C 14.2 °C 1005.6 hPa South 1.6 km/h 16.1 km/h 82% 3.6 mm
23:55 17.3 °C 14.2 °C 1005.6 hPa SSW 1.6 km/h 16.1 km/h 82% 3.6 mm
Westford Weather
Compliments of Weather Underground

 
 
Current Radar Loop:

Copyright © WestfordWeather.net 2007-2014. All rights reserved.